Flight Track Log - Related Links

Times and Time Zones

All times are in EDT time to prevent confusion due to time zone crossing. See the RPA3247 flight status page for this flight to view local times or setup timezone preferences in your user account.

Time Position Orientation Groundspeed Altitude Reporting Facility
EDT Latitude Longitude Course Direction KTS MPH feet Rate Location/Type
Thu 09:23:55 PM 38.8978 -77.0853 236° Southwest 145 167 2,500  Level Washington Center
Thu 09:24:55 PM 38.9411 -77.1342 319° Northwest 174 200 4,200 2,100 Climbing Washington Center
Thu 09:25:00 PM 38.6804 -77.3552 234° Southwest  Level FlightAware Approximate
Thu 09:25:55 PM 38.9736 -77.2017 302° West 201 231 6,700  Level Washington Center
Thu 09:26:00 PM 38.6199 -77.4611 234° Southwest  Level FlightAware Approximate
Thu 09:26:53 PM 38.9183 -77.2697 224° Southwest 189 217 9,100  Level Washington Center
Thu 09:27:00 PM 38.5769 -77.5796 237° Southwest  Level FlightAware Approximate
Thu 09:27:53 PM 38.8569 -77.3431 223° Southwest 255 293 10,900  Level Washington Center
Thu 09:28:00 PM 38.5180 -77.6867 233° Southwest  Level FlightAware Approximate
Thu 09:28:54 PM 38.7869 -77.4186 220° Southwest 292 336 12,300  Level Washington Center
Thu 09:29:00 PM 38.4552 -77.7887 236° Southwest  Level FlightAware Approximate
Thu 09:29:55 PM 38.7147 -77.4994 221° Southwest 329 379 14,400  Level Washington Center
Thu 09:30:53 PM 38.6406 -77.5825 221° Southwest 348 400 15,100 1,210 Climbing Washington Center
Thu 09:31:54 PM 38.5556 -77.6758 221° Southwest 360 414 16,800 1,488 Climbing Washington Center
Thu 09:32:54 PM 38.4831 -77.7719 226° Southwest 365 420 18,100 1,339 Climbing Washington Center
Thu 09:33:55 PM 38.4244 -77.8867 237° Southwest 376 433 19,500 1,339 Climbing Washington Center
Thu 09:34:55 PM 38.3661 -77.9989 236° Southwest 386 444 20,800 1,250 Climbing Washington Center
Thu 09:35:55 PM 38.3053 -78.1133 236° Southwest 392 451 22,000 1,250 Climbing Washington Center
Thu 09:36:55 PM 38.2422 -78.2328 236° Southwest 402 463 23,300 1,220 Climbing Washington Center
Thu 09:37:53 PM 38.1769 -78.3494 235° Southwest 408 470 24,400 908 Climbing Washington Center
Thu 09:38:54 PM 38.1056 -78.4628 231° Southwest 413 475 25,100 744 Climbing Washington Center
Thu 09:39:54 PM 38.0425 -78.5633 231° Southwest 418 481 25,900 992 Climbing Washington Center
Thu 09:40:55 PM 37.9647 -78.6786 229° Southwest 418 481 27,100 1,160 Climbing Washington Center
Thu 09:41:53 PM 37.8867 -78.7886 228° Southwest 423 487 28,200 1,261 Climbing Washington Center
Thu 09:42:54 PM 37.8039 -78.9167 231° Southwest 429 494 29,600 1,279 Climbing Washington Center
Thu 09:43:55 PM 37.7503 -79.0481 243° Southwest 429 494 30,800 1,190 Climbing Washington Center
Thu 09:44:55 PM 37.7006 -79.1772 244° Southwest 418 481 32,000 1,169 Climbing Washington Center
Thu 09:45:53 PM 37.6508 -79.3033 244° Southwest 411 473 33,100 1,008 Climbing Washington Center
Thu 09:46:54 PM 37.6075 -79.4192 245° Southwest 411 473 34,000 446 Climbing Washington Center
Thu 09:47:54 PM 37.5486 -79.5603 242° Southwest 411 473 34,000  Level Washington Center
Thu 09:48:55 PM 37.5006 -79.6833 244° Southwest 425 489 34,000 -198 Level Washington Center
Thu 09:49:55 PM 37.4433 -79.8322 244° Southwest 431 496 33,600 -700 Descending Washington Center
Thu 09:50:55 PM 37.3931 -79.9547 243° Southwest 441 507 32,600 -604 Descending Washington Center
Thu 09:52:34 PM 37.2950 -80.1961 243° Southwest 429 494 32,000 -226 Descending Atlanta Center
Thu 09:53:34 PM 37.2389 -80.3319 243° Southwest 435 501 32,000  Level Atlanta Center
Thu 09:54:34 PM 37.1903 -80.4539 243° Southwest 441 507 32,000  Level Atlanta Center
Thu 09:55:34 PM 37.1358 -80.5892 243° Southwest 441 507 32,000  Level Atlanta Center
Thu 09:56:34 PM 37.0814 -80.7269 244° Southwest 441 507 32,000  Level Atlanta Center
Thu 09:57:34 PM 37.0267 -80.8747 245° Southwest 436 502 32,000  Level Atlanta Center
Thu 09:58:34 PM 36.9781 -81.0119 246° West 430 495 32,000  Level Atlanta Center
Thu 09:59:34 PM 36.9272 -81.1514 246° West 430 495 32,000  Level Atlanta Center
Thu 10:00:34 PM 36.8783 -81.2881 246° West 430 495 32,000  Level Atlanta Center
Thu 10:01:34 PM 36.8331 -81.4117 245° Southwest 430 495 32,000  Level Atlanta Center
Thu 10:02:34 PM 36.7839 -81.5608 248° West 430 495 32,000  Level Atlanta Center
Thu 10:03:34 PM 36.7344 -81.6972 246° West 430 495 32,000  Level Atlanta Center
Thu 10:04:34 PM 36.6828 -81.8358 245° Southwest 430 495 32,000  Level Atlanta Center
Thu 10:05:34 PM 36.6333 -81.9769 246° West 441 507 32,000  Level Atlanta Center
Thu 10:06:34 PM 36.5811 -82.1128 244° Southwest 446 513 32,000  Level Atlanta Center
Thu 10:07:34 PM 36.5292 -82.2536 245° Southwest 446 513 32,000  Level Atlanta Center
Thu 10:08:34 PM 36.4769 -82.3889 244° Southwest 441 507 32,000  Level Atlanta Center
Thu 10:09:34 PM 36.4244 -82.5294 245° Southwest 447 514 32,000  Level Atlanta Center
Thu 10:10:34 PM 36.3800 -82.6539 246° West 447 514 32,000 300 Level Atlanta Center
Thu 10:11:34 PM 36.3253 -82.7914 244° Southwest 447 514 32,600 900 Climbing Atlanta Center
Thu 10:12:34 PM 36.2764 -82.9236 245° Southwest 434 499 33,800 700 Climbing Atlanta Center
Thu 10:13:34 PM 36.2275 -83.0581 246° West 429 494 34,000 100 Climbing Atlanta Center
Thu 10:14:34 PM 36.1742 -83.1900 243° Southwest 423 487 34,000  Level Atlanta Center
Thu 10:15:34 PM 36.1250 -83.3242 246° West 428 493 34,000  Level Atlanta Center
Thu 10:16:34 PM 36.0736 -83.4581 245° Southwest 428 493 34,000 -750 Level Atlanta Center
Thu 10:17:34 PM 36.0178 -83.6047 245° Southwest 428 493 32,500 -1,500 Descending Atlanta Center
Thu 10:18:34 PM 35.9661 -83.7361 244° Southwest 428 493 31,000 -1,250 Descending Atlanta Center
Thu 10:19:34 PM 35.9164 -83.8669 245° Southwest 428 493 30,000 -500 Descending Atlanta Center
Thu 10:20:34 PM 35.8392 -83.9850 231° Southwest 433 498 30,000  Level Atlanta Center
Thu 10:21:34 PM 35.7578 -84.1028 230° Southwest 445 512 30,000  Level Atlanta Center
Thu 10:22:34 PM 35.6764 -84.2153 228° Southwest 445 512 30,000  Level Atlanta Center
Thu 10:23:34 PM 35.5947 -84.3272 228° Southwest 445 512 30,000  Level Atlanta Center
Thu 10:24:34 PM 35.5236 -84.4292 229° Southwest 445 512 30,000  Level Atlanta Center
Thu 10:25:34 PM 35.4419 -84.5436 229° Southwest 445 512 30,000  Level Atlanta Center
Thu 10:26:34 PM 35.3600 -84.6525 227° Southwest 445 512 30,000  Level Atlanta Center
Thu 10:27:34 PM 35.2781 -84.7664 229° Southwest 440 506 30,000  Level Atlanta Center
Thu 10:28:34 PM 35.2000 -84.8750 229° Southwest 434 499 30,000  Level Atlanta Center
Thu 10:29:34 PM 35.1181 -84.9833 227° Southwest 434 499 30,000  Level Atlanta Center
Thu 10:30:34 PM 35.0356 -85.0942 228° Southwest 439 505 30,000  Level Atlanta Center
Thu 10:31:34 PM 34.9553 -85.2069 229° Southwest 439 505 30,000  Level Atlanta Center
Thu 10:32:34 PM 34.8750 -85.3147 228° Southwest 439 505 30,000  Level Atlanta Center
Thu 10:33:34 PM 34.7903 -85.4247 227° Southwest 439 505 30,000  Level Atlanta Center
Thu 10:34:34 PM 34.7075 -85.5372 228° Southwest 439 505 30,000  Level Atlanta Center
Thu 10:35:34 PM 34.6269 -85.6467 228° Southwest 439 505 30,000  Level Atlanta Center
Thu 10:36:34 PM 34.5461 -85.7536 227° Southwest 439 505 30,000  Level Atlanta Center
Thu 10:37:34 PM 34.4589 -85.8703 228° Southwest 439 505 30,000  Level Atlanta Center
Thu 10:38:34 PM 34.3758 -85.9767 227° Southwest 434 499 30,000  Level Atlanta Center
Thu 10:39:34 PM 34.2950 -86.0856 228° Southwest 440 506 30,000  Level Atlanta Center
Thu 10:40:34 PM 34.2139 -86.1917 227° Southwest 435 501 30,000  Level Atlanta Center
Thu 10:41:34 PM 34.1367 -86.2975 229° Southwest 435 501 30,000  Level Atlanta Center
Thu 10:42:34 PM 34.0533 -86.4006 226° Southwest 435 501 30,000 50 Level Atlanta Center
Thu 10:43:34 PM 33.9742 -86.5036 227° Southwest 435 501 30,100 700 Climbing Atlanta Center
Thu 10:44:34 PM 33.8969 -86.6039 227° Southwest 435 501 31,400 950 Climbing Atlanta Center
Thu 10:45:34 PM 33.8197 -86.7067 228° Southwest 430 495 32,000 300 Climbing Atlanta Center
Thu 10:46:34 PM 33.7403 -86.8067 226° Southwest 425 489 32,000  Level Atlanta Center
Thu 10:47:34 PM 33.6628 -86.9064 227° Southwest 420 483 32,000  Level Atlanta Center
Thu 10:48:34 PM 33.6000 -87.0017 232° Southwest 415 478 32,000  Level Atlanta Center
Thu 10:49:34 PM 33.5306 -87.1064 232° Southwest 410 472 32,000  Level Atlanta Center
Thu 10:50:34 PM 33.4611 -87.2136 232° Southwest 410 472 32,000  Level Atlanta Center
Thu 10:51:34 PM 33.3917 -87.3156 231° Southwest 410 472 32,000  Level Atlanta Center
Thu 10:52:34 PM 33.3219 -87.4197 231° Southwest 410 472 32,000  Level Atlanta Center
Thu 10:54:56 PM 33.1603 -87.6622 232° Southwest 397 457 32,000  Level Memphis Center
Thu 10:55:56 PM 33.0917 -87.7636 231° Southwest 397 457 32,000  Level Memphis Center
Thu 10:56:56 PM 33.0228 -87.8672 232° Southwest 402 463 32,000  Level Memphis Center
Thu 10:57:56 PM 32.9497 -87.9781 232° Southwest 402 463 32,000  Level Memphis Center
Thu 10:58:56 PM 32.8828 -88.0789 232° Southwest 402 463 32,000  Level Memphis Center
Thu 10:59:56 PM 32.8114 -88.1797 230° Southwest 402 463 32,000  Level Memphis Center
Thu 11:00:56 PM 32.7403 -88.2828 231° Southwest 402 463 32,000  Level Memphis Center
Thu 11:01:56 PM 32.6831 -88.3631 230° Southwest 402 463 32,000  Level Memphis Center
Thu 11:02:56 PM 32.6014 -88.4856 232° Southwest 402 463 32,000  Level Memphis Center
Thu 11:03:56 PM 32.5319 -88.5856 231° Southwest 397 457 32,000  Level Memphis Center
Thu 11:04:56 PM 32.4644 -88.6831 231° Southwest 397 457 32,000  Level Memphis Center
Thu 11:05:56 PM 32.3928 -88.7853 230° Southwest 402 463 32,000  Level Memphis Center
Thu 11:06:56 PM 32.3103 -88.8728 222° Southwest 402 463 32,000  Level Memphis Center
Thu 11:07:56 PM 32.2236 -88.9575 220° Southwest 408 470 32,000  Level Memphis Center
Thu 11:09:33 PM 32.0911 -89.0828 219° Southwest 401 461 32,000  Level Houston Center
Thu 11:10:34 PM 32.0039 -89.1672 219° Southwest 406 467 32,000  Level Houston Center
Thu 11:11:35 PM 31.9150 -89.2525 219° Southwest 411 473 32,000 -244 Level Houston Center
Thu 11:12:37 PM 31.8261 -89.3400 220° Southwest 415 478 31,500 -1,317 Descending Houston Center
Thu 11:13:38 PM 31.7378 -89.4239 219° Southwest 413 475 29,300 -1,721 Descending Houston Center
Thu 11:14:39 PM 31.6517 -89.5061 219° Southwest 407 468 28,000 -634 Descending Houston Center
Thu 11:15:41 PM 31.5564 -89.5978 219° Southwest 407 468 28,000 -390 Level Houston Center
Thu 11:16:42 PM 31.4669 -89.6819 219° Southwest 413 475 27,200 -1,131 Descending Houston Center
Thu 11:17:43 PM 31.3822 -89.7617 219° Southwest 398 458 25,700 -1,561 Descending Houston Center
Thu 11:18:45 PM 31.2844 -89.8544 219° Southwest 382 440 24,000 -1,122 Descending Houston Center
Thu 11:19:46 PM 31.1989 -89.9286 217° Southwest 383 441 23,400 -1,024 Descending Houston Center
Thu 11:20:48 PM 31.0939 -89.9542 192° South 388 447 21,900 -1,463 Descending Houston Center
Thu 11:21:49 PM 30.9922 -89.9828 194° South 378 435 20,400 -1,672 Descending Houston Center
Thu 11:22:50 PM 30.8958 -90.0100 194° South 364 419 18,500 -2,148 Descending Houston Center
Thu 11:23:10 PM 30.8547 -90.0222 194° South 350 403 17,500 -2,459 Descending Houston Center
Thu 11:23:51 PM 30.8042 -90.0358 193° South 345 397 16,000 -2,712 Descending Houston Center
Thu 11:24:23 PM 30.7428 -90.0511 192° South 327 376 14,200 -2,613 Descending Houston Center
Thu 11:24:53 PM 30.7161 -90.0592 195° South 330 380 13,300 -2,262 Descending Houston Center
Thu 11:25:24 PM 30.6600 -90.0739 193° South 311 358 11,900 -2,164 Descending Houston Center
Thu 11:25:54 PM 30.6353 -90.0814 195° South 309 356 11,100 -2,100 Descending Houston Center
Thu 11:26:24 PM 30.5833 -90.0917 190° South 272 313 9,800 -2,323 Descending Houston Center
Thu 11:26:56 PM 30.5464 -90.0967 187° South 278 320 8,700 -2,164 Descending Houston Center
Thu 11:27:25 PM 30.5106 -90.1019 187° South 264 304 7,600 -2,164 Descending Houston Center
Thu 11:27:57 PM 30.4739 -90.1067 186° South 266 306 6,500 -1,967 Descending Houston Center
Thu 11:28:26 PM 30.4356 -90.1100 184° South 265 305 5,600 -1,869 Descending Houston Center
Thu 11:28:58 PM 30.4017 -90.1161 189° South 264 304 4,600 -1,600 Descending Houston Center
Thu 11:29:26 PM 30.3672 -90.1297 199° South 256 295 4,000 -689 Descending Houston Center
Thu 11:29:59 PM 30.3353 -90.1400 196° South 255 293 3,900  Descending Houston Center
Thu 11:30:27 PM 30.2989 -90.1519 196° South 251 289 4,000  Climbing Houston Center
Thu 11:31:01 PM 30.2664 -90.1606 193° South 255 293 3,900  Descending Houston Center
Thu 11:31:27 PM 30.2306 -90.1739 198° South 256 295 4,000  Climbing Houston Center
Thu 11:32:02 PM 30.1994 -90.1825 193° South 254 292 3,900 -197 Descending Houston Center
Thu 11:32:28 PM 30.1644 -90.1933 195° South 227 261 3,800 -231 Descending Houston Center

Login

Don't have an account? Register now (free) for customized features, flight alerts, and more!